Time;durP1;ratioP1;P1;durP2;ratioP2;P2;SDS_P1;SDS_P2;PMS_P1;PMS_P2;Temp;Humidity;BMP_temperature;BMP_pressure;BME280_temperature;BME280_humidity;BME280_pressure;Samples;Min_cycle;Max_cycle;Signal;HPM_P1;HPM_P2
2020/12/31 00:00:04;;;;;;;4.23;2.20;;;;;;;3.58;100.00;97271.63;5013731;28;20292;-74
2020/12/31 00:02:31;;;;;;;6.13;1.83;;;;;;;3.65;100.00;97283.09;5006121;28;20664;-76
2020/12/31 00:04:58;;;;;;;3.67;1.80;;;;;;;3.56;100.00;97285.97;5014386;28;20204;-74
2020/12/31 00:07:25;;;;;;;4.70;2.20;;;;;;;3.52;100.00;97282.88;5014094;28;20204;-74
2020/12/31 00:09:52;;;;;;;3.27;2.17;;;;;;;3.47;100.00;97279.94;5013982;28;20305;-74
2020/12/31 00:12:19;;;;;;;3.30;2.07;;;;;;;3.68;100.00;97279.28;5014039;28;20267;-74
2020/12/31 00:14:46;;;;;;;4.80;2.37;;;;;;;3.73;100.00;97280.41;5007465;28;20231;-74
2020/12/31 00:17:13;;;;;;;2.90;1.90;;;;;;;3.78;100.00;97275.44;5010054;28;20253;-74
2020/12/31 00:19:39;;;;;;;4.30;2.40;;;;;;;3.84;100.00;97272.09;5013805;28;20220;-76
2020/12/31 00:22:06;;;;;;;3.90;2.43;;;;;;;3.75;100.00;97273.13;5013913;28;20207;-74
2020/12/31 00:24:34;;;;;;;3.73;2.53;;;;;;;3.90;100.00;97270.53;5013792;28;20547;-74
2020/12/31 00:27:01;;;;;;;4.93;2.70;;;;;;;3.90;100.00;97267.91;5013871;28;20290;-74
2020/12/31 00:29:27;;;;;;;4.50;2.77;;;;;;;3.96;100.00;97257.44;5012512;28;20632;-74
2020/12/31 00:31:54;;;;;;;7.03;3.83;;;;;;;3.96;100.00;97257.44;5013437;28;20227;-74
2020/12/31 00:34:21;;;;;;;4.00;2.60;;;;;;;3.92;100.00;97258.00;5013909;28;20887;-74
2020/12/31 00:36:48;;;;;;;5.47;2.80;;;;;;;3.98;100.00;97255.47;5013648;28;20206;-74
2020/12/31 00:39:17;;;;;;;3.77;2.00;;;;;;;4.09;100.00;97251.56;5013352;28;20241;-75
2020/12/31 00:41:44;;;;;;;5.63;2.33;;;;;;;4.04;100.00;97254.75;5005996;28;20341;-74
2020/12/31 00:44:11;;;;;;;4.63;2.33;;;;;;;4.11;100.00;97252.22;5013569;28;20198;-76
2020/12/31 00:46:38;;;;;;;3.87;2.00;;;;;;;4.13;100.00;97261.59;5013363;28;20212;-74
2020/12/31 00:49:05;;;;;;;4.40;2.37;;;;;;;4.16;100.00;97242.75;5013204;28;20598;-74
2020/12/31 00:51:32;;;;;;;3.67;2.07;;;;;;;4.11;100.00;97252.22;5013508;28;20215;-74
2020/12/31 00:53:59;;;;;;;3.67;2.20;;;;;;;4.07;100.00;97249.09;5013474;28;20206;-75
2020/12/31 00:56:26;;;;;;;3.40;2.00;;;;;;;4.16;100.00;97248.03;5013371;28;20208;-74
2020/12/31 00:58:53;;;;;;;4.43;2.47;;;;;;;4.08;100.00;97247.28;5013089;28;20234;-75
2020/12/31 01:01:20;;;;;;;3.47;2.20;;;;;;;4.03;100.00;97252.28;5009672;28;20241;-75
2020/12/31 01:03:47;;;;;;;3.43;2.07;;;;;;;4.07;100.00;97254.38;5012435;28;20207;-75
2020/12/31 01:06:14;;;;;;;2.93;2.03;;;;;;;3.97;100.00;97253.00;5013444;28;20206;-74
2020/12/31 01:08:41;;;;;;;2.80;2.30;;;;;;;3.99;100.00;97245.72;5012636;28;20225;-75
2020/12/31 01:11:08;;;;;;;3.43;2.40;;;;;;;3.95;100.00;97252.34;5020566;28;20280;-74
2020/12/31 01:13:35;;;;;;;5.70;2.30;;;;;;;3.87;100.00;97249.78;5012915;28;20212;-75
2020/12/31 01:16:02;;;;;;;3.53;2.23;;;;;;;3.75;100.00;97253.84;5019953;28;20235;-75
2020/12/31 01:18:29;;;;;;;3.13;2.00;;;;;;;3.63;100.00;97252.63;5015780;28;20217;-76
2020/12/31 01:20:56;;;;;;;3.73;1.90;;;;;;;3.56;100.00;97249.84;5012908;28;20301;-75
2020/12/31 01:23:23;;;;;;;4.97;2.50;;;;;;;3.47;100.00;97253.56;5012645;28;20212;-74
2020/12/31 01:25:51;;;;;;;9.40;3.87;;;;;;;3.33;100.00;97259.59;5013101;28;20204;-74
2020/12/31 01:28:18;;;;;;;6.87;3.23;;;;;;;3.25;100.00;97249.06;5012805;28;20203;-74
2020/12/31 01:30:45;;;;;;;3.60;2.50;;;;;;;3.13;100.00;97254.91;5012325;28;20219;-74
2020/12/31 01:33:13;;;;;;;4.63;2.60;;;;;;;3.06;100.00;97256.59;5012825;28;20568;-75
2020/12/31 01:35:39;;;;;;;6.57;3.17;;;;;;;3.03;100.00;97249.88;5012298;28;20835;-75
2020/12/31 01:38:06;;;;;;;4.63;2.60;;;;;;;2.97;100.00;97247.94;5015736;28;20660;-75
2020/12/31 01:40:33;;;;;;;3.23;2.07;;;;;;;2.91;100.00;97243.34;5010105;28;20221;-75
2020/12/31 01:43:00;;;;;;;4.77;2.07;;;;;;;2.92;100.00;97247.63;5012312;28;20199;-75
2020/12/31 01:45:26;;;;;;;3.73;2.73;;;;;;;2.97;100.00;97241.81;5011886;28;20665;-75
2020/12/31 01:47:54;;;;;;;4.03;2.50;;;;;;;3.00;100.00;97233.59;5012606;28;20548;-75
2020/12/31 01:50:21;;;;;;;6.13;2.53;;;;;;;3.07;100.00;97231.88;5011931;28;20233;-75
2020/12/31 01:52:48;;;;;;;3.60;2.37;;;;;;;3.10;100.00;97227.09;5012253;28;20195;-75
2020/12/31 01:55:15;;;;;;;5.20;2.60;;;;;;;3.20;100.00;97232.97;5012481;28;20277;-75
2020/12/31 01:57:42;;;;;;;4.30;2.57;;;;;;;3.22;100.00;97238.06;5011967;28;20207;-75
2020/12/31 02:00:10;;;;;;;4.63;2.70;;;;;;;3.34;100.00;97224.31;5015925;28;20240;-75
2020/12/31 02:02:36;;;;;;;3.87;2.43;;;;;;;3.46;100.00;97230.00;5012042;28;20207;-75
2020/12/31 02:05:03;;;;;;;6.97;3.47;;;;;;;3.50;100.00;97236.56;5012240;28;20205;-75
2020/12/31 02:07:31;;;;;;;11.13;4.07;;;;;;;3.49;100.00;97229.63;5012137;28;20198;-75
2020/12/31 02:09:58;;;;;;;6.90;3.27;;;;;;;3.45;100.00;97226.53;5012118;28;20230;-75
2020/12/31 02:12:25;;;;;;;5.83;2.97;;;;;;;3.54;100.00;97229.94;5009441;28;20269;-75
2020/12/31 02:14:53;;;;;;;6.03;3.27;;;;;;;3.63;100.00;97231.50;5012062;28;20197;-75
2020/12/31 02:17:20;;;;;;;8.47;3.83;;;;;;;3.61;100.00;97229.03;5011847;28;20200;-75
2020/12/31 02:19:46;;;;;;;4.97;2.90;;;;;;;3.58;100.00;97226.78;5012131;28;20220;-75
2020/12/31 02:22:14;;;;;;;5.10;2.70;;;;;;;3.60;100.00;97219.50;5011915;28;20569;-75
2020/12/31 02:24:41;;;;;;;4.47;2.70;;;;;;;3.52;100.00;97218.75;5012246;28;20538;-76
2020/12/31 02:27:09;;;;;;;4.70;2.97;;;;;;;3.49;100.00;97224.34;5011344;28;20219;-75
2020/12/31 02:29:35;;;;;;;8.10;3.10;;;;;;;3.51;100.00;97225.03;5012332;28;20238;-75
2020/12/31 02:32:02;;;;;;;5.03;3.30;;;;;;;3.39;100.00;97221.13;5011863;28;20203;-75
2020/12/31 02:34:30;;;;;;;6.50;3.30;;;;;;;3.34;100.00;97219.03;5012022;28;20572;-79
2020/12/31 02:36:57;;;;;;;5.13;3.43;;;;;;;3.28;100.00;97222.38;5011415;28;20692;-76
2020/12/31 02:39:24;;;;;;;5.23;2.83;;;;;;;3.32;100.00;97215.75;5011030;28;20290;-77
2020/12/31 02:41:51;;;;;;;4.93;2.77;;;;;;;3.26;100.00;97215.63;5011546;28;20203;-76
2020/12/31 02:44:18;;;;;;;5.40;3.03;;;;;;;3.22;100.00;97217.81;5011364;28;20203;-75
2020/12/31 02:46:45;;;;;;;5.87;3.13;;;;;;;3.13;100.00;97213.56;5011726;28;20199;-75
2020/12/31 02:49:11;;;;;;;4.50;2.63;;;;;;;3.07;100.00;97222.19;5011383;28;20705;-76
2020/12/31 02:51:38;;;;;;;4.63;2.80;;;;;;;3.00;100.00;97215.94;5011759;28;20571;-75
2020/12/31 02:54:05;;;;;;;4.53;2.87;;;;;;;2.86;100.00;97214.06;5013673;28;20273;-75
2020/12/31 02:56:33;;;;;;;7.57;2.93;;;;;;;3.05;100.00;97215.44;5015143;28;20204;-75
2020/12/31 02:58:59;;;;;;;6.73;2.57;;;;;;;2.89;100.00;97211.06;5015673;28;20775;-75
2020/12/31 03:01:26;;;;;;;4.00;2.47;;;;;;;2.65;100.00;97219.06;5013592;28;20202;-75
2020/12/31 03:03:53;;;;;;;3.80;2.40;;;;;;;2.55;100.00;97215.81;5015373;28;20209;-75
2020/12/31 03:06:20;;;;;;;5.47;2.87;;;;;;;2.39;100.00;97221.16;5012612;28;20203;-76
2020/12/31 03:08:48;;;;;;;3.57;2.53;;;;;;;2.36;100.00;97213.59;5014768;28;20314;-75
2020/12/31 03:11:19;;;;;;;4.40;2.43;;;;;;;2.36;100.00;97210.97;5015226;28;20317;-75
2020/12/31 03:13:46;;;;;;;4.63;2.73;;;;;;;2.24;100.00;97203.59;5010601;28;20206;-75
2020/12/31 03:16:13;;;;;;;7.57;3.10;;;;;;;2.20;100.00;97210.19;5019183;28;20333;-77
2020/12/31 03:18:40;;;;;;;4.43;2.33;;;;;;;2.14;100.00;97208.25;5015269;28;20206;-77
2020/12/31 03:21:09;;;;;;;4.47;2.60;;;;;;;2.07;100.00;97200.19;5014969;28;20265;-74
2020/12/31 03:23:36;;;;;;;5.87;2.87;;;;;;;2.03;100.00;97198.88;5020848;28;20206;-76
2020/12/31 03:26:02;;;;;;;3.40;2.30;;;;;;;2.00;100.00;97203.66;5014909;28;20203;-76
2020/12/31 03:28:29;;;;;;;6.43;2.83;;;;;;;1.96;100.00;97191.81;5014923;28;20199;-77
2020/12/31 03:30:57;;;;;;;4.77;2.70;;;;;;;1.81;100.00;97196.94;5015139;28;20242;-76
2020/12/31 03:33:24;;;;;;;4.40;2.43;;;;;;;1.76;100.00;97196.63;5014911;28;20204;-74
2020/12/31 03:35:51;;;;;;;4.87;2.83;;;;;;;1.75;100.00;97195.00;5014946;28;20216;-77
2020/12/31 03:38:21;;;;;;;5.83;2.67;;;;;;;1.74;100.00;97195.16;5015361;28;20199;-76
2020/12/31 03:40:48;;;;;;;5.50;2.73;;;;;;;1.66;100.00;97195.97;5014451;28;20683;-76
2020/12/31 03:43:15;;;;;;;6.13;2.60;;;;;;;1.59;100.00;97202.88;5015014;28;20857;-76
2020/12/31 03:45:42;;;;;;;5.13;2.90;;;;;;;1.67;100.00;97199.41;5014728;28;20202;-76
2020/12/31 03:48:10;;;;;;;3.67;2.30;;;;;;;1.64;100.00;97194.50;5009389;28;20701;-76
2020/12/31 03:50:37;;;;;;;4.03;2.60;;;;;;;1.76;100.00;97186.13;5017246;28;20304;-76
2020/12/31 03:53:04;;;;;;;6.60;2.90;;;;;;;1.71;100.00;97177.91;5014643;28;20207;-76
2020/12/31 03:55:31;;;;;;;5.27;2.80;;;;;;;1.65;100.00;97175.94;5013812;28;20207;-76
2020/12/31 03:57:58;;;;;;;4.73;3.00;;;;;;;1.57;100.00;97178.56;5014367;28;20226;-74
2020/12/31 04:00:25;;;;;;;4.90;2.40;;;;;;;1.51;100.00;97173.97;5018400;28;20280;-76
2020/12/31 04:02:52;;;;;;;6.17;2.90;;;;;;;1.53;100.00;97171.97;5014814;28;20195;-76
2020/12/31 04:05:19;;;;;;;6.30;3.17;;;;;;;1.49;100.00;97173.28;5015746;28;20215;-76
2020/12/31 04:07:46;;;;;;;5.33;2.50;;;;;;;1.44;100.00;97169.53;5011282;28;20199;-77
2020/12/31 04:10:13;;;;;;;4.53;2.90;;;;;;;1.43;100.00;97165.28;5014091;28;20281;-76
2020/12/31 04:12:40;;;;;;;4.67;3.17;;;;;;;1.39;100.00;97162.16;5013974;28;20191;-76
2020/12/31 04:15:06;;;;;;;7.53;3.30;;;;;;;1.37;100.00;97156.22;5014536;28;20214;-76
2020/12/31 04:17:33;;;;;;;7.40;3.50;;;;;;;1.33;100.00;97159.34;5014412;28;20207;-74
2020/12/31 04:20:00;;;;;;;5.33;3.10;;;;;;;1.33;100.00;97151.47;5014465;28;20211;-77
2020/12/31 04:22:29;;;;;;;4.17;2.60;;;;;;;1.29;100.00;97151.00;5014105;28;20668;-74
2020/12/31 04:24:56;;;;;;;6.80;2.97;;;;;;;1.25;100.00;97140.94;5013931;28;20260;-77
2020/12/31 04:27:23;;;;;;;5.30;2.97;;;;;;;1.26;100.00;97145.22;5005650;28;20203;-76
2020/12/31 04:29:49;;;;;;;5.23;2.80;;;;;;;1.17;100.00;97139.16;5013959;28;20226;-74
2020/12/31 04:32:16;;;;;;;3.43;2.47;;;;;;;1.07;100.00;97135.06;5013686;28;20213;-75
2020/12/31 04:34:43;;;;;;;4.70;2.93;;;;;;;0.95;100.00;97133.72;5014296;28;20199;-76
2020/12/31 04:37:10;;;;;;;5.17;3.10;;;;;;;0.93;100.00;97135.69;5011250;28;20206;-76
2020/12/31 04:39:38;;;;;;;4.83;2.63;;;;;;;1.01;100.00;97136.50;5012568;28;20234;-75
2020/12/31 04:42:05;;;;;;;4.50;2.37;;;;;;;0.96;100.00;97136.19;5012374;28;20834;-75
2020/12/31 04:44:32;;;;;;;5.23;2.33;;;;;;;0.96;100.00;97130.94;5012298;28;20194;-75
2020/12/31 04:46:59;;;;;;;6.17;3.00;;;;;;;0.88;100.00;97135.34;5013679;28;20269;-75
2020/12/31 04:49:35;;;;;;;3.93;2.63;;;;;;;0.93;100.00;97133.88;5013223;28;20239;-75
2020/12/31 04:52:03;;;;;;;5.17;2.90;;;;;;;0.91;100.00;97141.09;5013311;28;20279;-74
2020/12/31 04:54:30;;;;;;;4.43;2.77;;;;;;;0.88;100.00;97133.53;5013653;28;20218;-75
2020/12/31 04:56:58;;;;;;;5.13;3.40;;;;;;;0.92;100.00;97139.31;5013562;28;20199;-74
2020/12/31 04:59:25;;;;;;;4.90;2.90;;;;;;;1.00;100.00;97129.63;5012283;28;20241;-76
2020/12/31 05:01:52;;;;;;;3.97;2.63;;;;;;;1.12;100.00;97132.75;5012587;28;20203;-75
2020/12/31 05:04:18;;;;;;;6.40;2.90;;;;;;;1.12;100.00;97120.44;5013495;28;20207;-74
2020/12/31 05:06:45;;;;;;;2.60;1.80;;;;;;;1.21;100.00;97122.06;5013337;28;20542;-74
2020/12/31 05:09:17;;;;;;;4.37;2.53;;;;;;;1.12;100.00;97120.44;5009731;28;20237;-74
2020/12/31 05:11:45;;;;;;;4.67;2.43;;;;;;;1.30;100.00;97112.38;5006367;28;20662;-75
2020/12/31 05:14:13;;;;;;;6.30;2.77;;;;;;;1.21;100.00;97113.34;5013523;28;20236;-74
2020/12/31 05:16:40;;;;;;;3.60;2.20;;;;;;;1.15;100.00;97119.28;5012851;28;20261;-75
2020/12/31 05:19:23;;;;;;;6.60;2.60;;;;;;;1.20;100.00;97116.97;5013559;28;20230;-74
2020/12/31 05:22:09;;;;;;;3.83;2.13;;;;;;;1.12;100.00;97119.63;5006269;28;20198;-77
2020/12/31 05:24:36;;;;;;;5.03;2.60;;;;;;;1.12;100.00;97112.53;5013228;28;20209;-76
2020/12/31 05:27:19;;;;;;;4.93;2.30;;;;;;;1.12;100.00;97117.00;5013081;28;20198;-76
2020/12/31 05:30:01;;;;;;;4.47;2.57;;;;;;;1.17;100.00;97107.63;5012773;28;20679;-74
2020/12/31 05:32:29;;;;;;;4.73;2.30;;;;;;;1.07;100.00;97112.22;5012856;28;20240;-74
2020/12/31 05:34:57;;;;;;;5.93;3.60;;;;;;;1.02;100.00;97121.59;5013234;28;20203;-75
2020/12/31 05:37:25;;;;;;;3.47;1.97;;;;;;;1.14;100.00;97113.22;5012880;28;20214;-76
2020/12/31 05:39:59;;;;;;;3.87;2.07;;;;;;;1.17;100.00;97109.44;5012251;28;20710;-75
2020/12/31 05:42:28;;;;;;;3.37;1.93;;;;;;;1.11;100.00;97116.16;5011057;28;20260;-76
2020/12/31 05:45:17;;;;;;;3.50;2.20;;;;;;;1.09;100.00;97106.81;5013108;28;20209;-75
2020/12/31 05:47:46;;;;;;;3.47;2.10;;;;;;;1.14;100.00;97104.50;5009347;28;20272;-75
2020/12/31 05:50:18;;;;;;;4.73;2.43;;;;;;;1.12;100.00;97104.66;5013089;28;20238;-75
2020/12/31 05:52:44;;;;;;;6.57;2.40;;;;;;;1.11;100.00;97103.03;5012383;28;20202;-75
2020/12/31 05:55:11;;;;;;;5.57;2.53;;;;;;;1.16;100.00;97099.91;5013754;28;20576;-76
2020/12/31 05:57:43;;;;;;;3.20;2.00;;;;;;;1.19;100.00;97096.94;5012760;28;20210;-74
2020/12/31 06:00:12;;;;;;;3.77;2.40;;;;;;;1.11;100.00;97092.53;5011343;28;20241;-76
2020/12/31 06:02:44;;;;;;;3.60;2.17;;;;;;;1.14;100.00;97089.56;5012071;28;20221;-75
2020/12/31 06:05:14;;;;;;;3.87;2.20;;;;;;;1.15;100.00;97098.25;5012581;28;20199;-75
2020/12/31 06:07:46;;;;;;;4.30;2.20;;;;;;;1.14;100.00;97104.50;5012409;28;20326;-75
2020/12/31 06:10:16;;;;;;;3.77;2.43;;;;;;;1.05;100.00;97100.22;5011911;28;20237;-75
2020/12/31 06:12:49;;;;;;;3.73;2.23;;;;;;;1.17;100.00;97097.09;5008697;28;20672;-76
2020/12/31 06:15:19;;;;;;;5.10;2.30;;;;;;;1.15;100.00;97090.38;5008935;28;20200;-75
2020/12/31 06:17:48;;;;;;;4.60;2.50;;;;;;;1.14;100.00;97076.44;5012678;28;20552;-75
2020/12/31 06:20:15;;;;;;;7.23;2.33;;;;;;;1.15;100.00;97083.31;5012040;28;20223;-75
2020/12/31 06:23:06;;;;;;;4.73;2.53;;;;;;;1.09;100.00;97083.16;5012084;28;20205;-74
2020/12/31 06:25:41;;;;;;;3.67;2.20;;;;;;;1.14;100.00;97081.69;5000684;28;20213;-76
2020/12/31 06:28:13;;;;;;;3.80;2.43;;;;;;;1.19;100.00;97084.66;5012112;28;20194;-74
2020/12/31 06:30:41;;;;;;;4.40;2.83;;;;;;;1.31;100.00;97091.19;5011873;28;20587;-74
2020/12/31 06:33:14;;;;;;;4.63;2.43;;;;;;;1.32;100.00;97090.19;5012259;28;20214;-75
2020/12/31 06:35:42;;;;;;;4.07;2.27;;;;;;;1.38;100.00;97086.91;5003815;28;20813;-75
2020/12/31 06:38:09;;;;;;;4.27;2.47;;;;;;;1.35;100.00;97084.63;5011578;28;20634;-74
2020/12/31 06:40:37;;;;;;;3.17;2.17;;;;;;;1.32;100.00;97087.56;5011121;28;20285;-75
2020/12/31 06:43:09;;;;;;;3.37;2.33;;;;;;;1.39;100.00;97080.69;5012432;28;20672;-75
2020/12/31 06:45:38;;;;;;;4.77;2.33;;;;;;;1.38;100.00;97079.03;5012132;28;20289;-75
2020/12/31 06:48:33;;;;;;;4.43;2.43;;;;;;;1.43;100.00;97084.59;5012033;28;20668;-74
2020/12/31 06:51:02;;;;;;;6.37;2.77;;;;;;;1.46;100.00;97076.38;5011803;28;20550;-79
2020/12/31 06:53:30;;;;;;;5.00;2.90;;;;;;;1.55;100.00;97079.81;5011860;28;20674;-74
2020/12/31 06:55:58;;;;;;;5.67;3.33;;;;;;;1.51;100.00;97076.72;5011818;28;20207;-74
2020/12/31 06:58:26;;;;;;;4.77;2.80;;;;;;;1.69;100.00;97077.31;5001673;28;20564;-74
2020/12/31 07:00:53;;;;;;;7.93;3.47;;;;;;;1.82;100.00;97072.34;5014391;28;20218;-74
2020/12/31 07:03:47;;;;;;;6.50;3.43;;;;;;;1.78;100.00;97067.59;5011674;28;20203;-75
2020/12/31 07:06:41;;;;;;;7.70;3.53;;;;;;;1.82;100.00;97066.25;5006110;28;20210;-75
2020/12/31 07:09:30;;;;;;;5.73;3.53;;;;;;;1.87;100.00;97071.81;5004220;28;20231;-74
2020/12/31 07:12:02;;;;;;;4.53;3.03;;;;;;;1.91;100.00;97055.56;5005954;28;20241;-78
2020/12/31 07:14:29;;;;;;;7.30;3.80;;;;;;;1.90;100.00;97055.72;5011580;28;20215;-77
2020/12/31 07:17:01;;;;;;;7.47;3.70;;;;;;;1.95;100.00;97053.41;5011938;28;20195;-74
2020/12/31 07:19:40;;;;;;;5.67;3.13;;;;;;;2.03;100.00;97046.28;5011169;28;20227;-75
2020/12/31 07:22:18;;;;;;;5.37;3.50;;;;;;;2.14;100.00;97059.06;5011479;28;20198;-75
2020/12/31 07:24:52;;;;;;;5.60;3.37;;;;;;;2.24;100.00;97054.41;5008434;28;20210;-76
2020/12/31 07:27:27;;;;;;;5.93;3.63;;;;;;;2.24;100.00;97045.69;5011929;28;20194;-76
2020/12/31 07:30:01;;;;;;;7.63;3.60;;;;;;;2.23;100.00;97049.28;5013290;28;20262;-76
2020/12/31 07:32:47;;;;;;;5.97;3.57;;;;;;;2.15;100.00;97047.56;5011087;28;20240;-76
2020/12/31 07:35:22;;;;;;;6.27;3.70;;;;;;;2.15;100.00;97054.63;5011419;28;20561;-76
2020/12/31 07:37:55;;;;;;;5.67;3.10;;;;;;;2.17;100.00;97050.81;5010882;28;20209;-76
2020/12/31 07:40:29;;;;;;;8.20;3.30;;;;;;;2.34;100.00;97054.19;5013409;28;20302;-76
2020/12/31 07:42:57;;;;;;;5.47;3.20;;;;;;;2.35;100.00;97053.19;5014773;28;20204;-76
2020/12/31 07:45:25;;;;;;;6.20;3.53;;;;;;;2.39;100.00;97052.66;5014740;28;20199;-76
2020/12/31 07:47:52;;;;;;;6.00;3.50;;;;;;;2.58;100.00;97051.41;5016168;28;20289;-77
2020/12/31 07:50:20;;;;;;;5.70;3.70;;;;;;;2.59;100.00;97045.97;5014569;28;20776;-76
2020/12/31 07:52:47;;;;;;;5.30;3.37;;;;;;;2.82;100.00;97046.78;5014726;28;20227;-77
2020/12/31 07:55:14;;;;;;;5.33;3.07;;;;;;;2.67;100.00;97040.66;5015075;28;20203;-77
2020/12/31 07:57:41;;;;;;;6.70;3.20;;;;;;;2.66;100.00;97036.38;5014917;28;20198;-77
2020/12/31 08:00:12;;;;;;;4.90;3.10;;;;;;;2.63;100.00;97039.34;5014175;28;20239;-77
2020/12/31 08:02:44;;;;;;;4.87;3.10;;;;;;;2.74;100.00;97040.78;5014527;28;20200;-77
2020/12/31 08:05:11;;;;;;;8.77;3.80;;;;;;;2.94;100.00;97039.28;5014751;28;20210;-77
2020/12/31 08:07:39;;;;;;;5.00;3.10;;;;;;;3.02;100.00;97047.13;5013702;28;20207;-77
2020/12/31 08:10:06;;;;;;;5.63;3.40;;;;;;;2.98;100.00;97045.84;5014412;28;20322;-77
2020/12/31 08:12:35;;;;;;;5.87;3.50;;;;;;;3.26;100.00;97037.16;5014127;28;20620;-76
2020/12/31 08:15:02;;;;;;;5.30;3.30;;;;;;;2.89;100.00;97042.44;5016554;28;20210;-74
2020/12/31 08:17:29;;;;;;;6.03;3.77;;;;;;;3.20;100.00;97048.44;5015903;28;20191;-76
2020/12/31 08:19:56;;;;;;;5.87;3.40;;;;;;;3.17;100.00;97033.00;5014253;28;20211;-76
2020/12/31 08:22:33;;;;;;;5.00;3.10;;;;;;;3.05;100.00;97034.41;5013534;28;20222;-77
2020/12/31 08:25:05;;;;;;;11.57;3.63;;;;;;;3.28;100.00;97040.47;5014615;28;20199;-75
2020/12/31 08:27:37;;;;;;;4.87;3.10;;;;;;;2.86;100.00;97036.72;5014378;28;20247;-78
2020/12/31 08:30:06;;;;;;;7.03;3.40;;;;;;;3.07;100.00;97037.69;5014662;28;20241;-75
2020/12/31 08:32:52;;;;;;;5.07;3.30;;;;;;;3.05;100.00;97037.03;5015266;28;20203;-80
2020/12/31 08:35:21;;;;;;;5.38;3.55;;;;;;;3.40;100.00;97030.31;5019480;28;20443;-79
2020/12/31 08:37:55;;;;;;;5.63;3.03;;;;;;;3.23;100.00;97042.00;5022362;28;20624;-77
2020/12/31 08:40:22;;;;;;;6.37;3.90;;;;;;;2.90;100.00;97035.38;5029664;28;20227;-81
2020/12/31 08:42:56;;;;;;;5.37;3.13;;;;;;;3.47;100.00;97032.03;5029055;28;20210;-80
2020/12/31 08:45:27;;;;;;;7.10;3.20;;;;;;;3.41;100.00;97040.66;5029654;28;20302;-82
2020/12/31 08:48:10;;;;;;;5.77;3.03;;;;;;;3.44;100.00;97034.19;5023631;28;20214;-77
2020/12/31 08:50:37;;;;;;;6.47;3.67;;;;;;;3.18;100.00;97039.06;5026649;28;20244;-79
2020/12/31 08:53:04;;;;;;;4.50;3.03;;;;;;;3.68;100.00;97031.31;5027004;28;20212;-80
2020/12/31 08:55:35;;;;;;;4.33;3.07;;;;;;;3.71;100.00;97036.22;5028928;28;20602;-76
2020/12/31 08:58:13;;;;;;;5.60;3.60;;;;;;;3.80;100.00;97035.13;5025128;28;20684;-84
2020/12/31 09:00:40;;;;;;;6.18;3.97;;;;;;;3.64;100.00;97041.41;5020673;28;20443;-80
2020/12/31 09:03:07;;;;;;;6.40;3.80;;;;;;;3.39;100.00;97047.09;5016267;28;20231;-78
2020/12/31 09:05:33;;;;;;;5.10;3.40;;;;;;;3.61;100.00;97043.59;5017317;28;20197;-78
2020/12/31 09:08:05;;;;;;;7.10;3.40;;;;;;;3.29;100.00;97034.19;5021686;28;20222;-77
2020/12/31 09:10:33;;;;;;;5.60;3.27;;;;;;;3.28;100.00;97048.38;5019006;28;20232;-77
2020/12/31 09:13:00;;;;;;;6.80;3.67;;;;;;;3.30;100.00;97038.47;5016558;28;20210;-78
2020/12/31 09:15:27;;;;;;;6.23;3.80;;;;;;;3.47;100.00;97041.75;5014906;28;20219;-80
2020/12/31 09:17:54;;;;;;;6.30;3.57;;;;;;;3.41;100.00;97039.84;5015010;28;20203;-74
2020/12/31 09:20:23;;;;;;;7.10;4.23;;;;;;;3.50;100.00;97039.56;5013506;28;20272;-74
2020/12/31 09:22:50;;;;;;;6.30;3.40;;;;;;;3.96;100.00;97032.31;5012362;28;20196;-72
2020/12/31 09:25:17;;;;;;;7.20;3.60;;;;;;;3.64;100.00;97043.22;5014035;28;20205;-76
2020/12/31 09:27:47;;;;;;;5.83;3.07;;;;;;;4.66;100.00;97028.03;5021957;28;20203;-81
2020/12/31 09:30:17;;;;;;;6.70;3.90;;;;;;;5.74;100.00;97024.88;5016098;28;20604;-81
2020/12/31 09:32:48;;;;;;;5.53;3.47;;;;;;;5.56;100.00;97025.38;5011523;28;20280;-75
2020/12/31 09:35:17;;;;;;;10.63;3.93;;;;;;;6.24;100.00;97019.25;5014004;28;20200;-76
2020/12/31 09:37:52;;;;;;;6.27;3.20;;;;;;;5.38;100.00;97026.88;5012806;28;20653;-76
2020/12/31 09:40:19;;;;;;;6.50;4.10;;;;;;;5.25;100.00;97030.22;5013094;28;20229;-77
2020/12/31 09:42:46;;;;;;;6.10;3.70;;;;;;;5.74;100.00;97016.94;5013219;28;20245;-77
2020/12/31 09:45:13;;;;;;;6.70;3.73;;;;;;;7.25;100.00;97010.06;5017294;28;20210;-79
2020/12/31 09:47:40;;;;;;;6.13;3.50;;;;;;;6.61;100.00;97016.91;5019154;28;20287;-78
2020/12/31 09:50:09;;;;;;;4.57;3.47;;;;;;;6.48;100.00;97016.06;5017946;28;20327;-74
2020/12/31 09:52:37;;;;;;;6.50;4.00;;;;;;;5.27;100.00;97019.44;5015443;28;20297;-75
2020/12/31 09:55:04;;;;;;;7.27;3.20;;;;;;;4.67;100.00;97017.28;5013186;28;20209;-76
2020/12/31 09:57:31;;;;;;;5.80;3.47;;;;;;;5.17;100.00;97014.47;5018301;28;20206;-76
2020/12/31 09:59:58;;;;;;;5.97;2.73;;;;;;;4.95;100.00;97012.88;5012826;28;20235;-73
2020/12/31 10:02:24;;;;;;;6.33;3.00;;;;;;;5.65;100.00;97010.97;5013540;28;20210;-77
2020/12/31 10:04:51;;;;;;;4.47;3.00;;;;;;;4.76;100.00;97008.22;5009137;28;20231;-75
2020/12/31 10:07:19;;;;;;;3.97;2.57;;;;;;;5.85;100.00;96992.56;5012152;28;20219;-74
2020/12/31 10:09:46;;;;;;;6.10;2.77;;;;;;;5.56;100.00;96993.59;5007137;28;20237;-73
2020/12/31 10:12:16;;;;;;;8.03;2.90;;;;;;;5.59;100.00;96990.56;5011607;28;20214;-74
2020/12/31 10:14:48;;;;;;;4.37;2.70;;;;;;;5.56;100.00;96985.66;5012961;28;20262;-76
2020/12/31 10:17:15;;;;;;;4.67;2.83;;;;;;;5.63;100.00;96983.06;5012358;28;20202;-75
2020/12/31 10:19:41;;;;;;;6.80;2.43;;;;;;;6.63;100.00;96976.94;5017011;28;20221;-74
2020/12/31 10:22:09;;;;;;;5.07;2.80;;;;;;;5.59;100.00;96984.47;5018079;28;20300;-77
2020/12/31 10:24:37;;;;;;;5.43;2.30;;;;;;;5.84;100.00;96978.50;5020803;28;20566;-72
2020/12/31 10:27:04;;;;;;;4.03;2.70;;;;;;;5.41;100.00;96974.38;5017855;28;20199;-75
2020/12/31 10:29:31;;;;;;;5.13;2.67;;;;;;;7.05;100.00;96968.63;5014799;28;20238;-74
2020/12/31 10:31:58;;;;;;;6.53;2.70;;;;;;;7.06;100.00;96976.38;5012477;28;20252;-76
2020/12/31 10:34:25;;;;;;;3.40;2.23;;;;;;;6.35;100.00;96970.97;5013087;28;20221;-79
2020/12/31 10:36:52;;;;;;;4.30;2.50;;;;;;;6.32;97.98;96974.00;5022967;28;20200;-81
2020/12/31 10:39:19;;;;;;;4.00;2.30;;;;;;;6.46;96.15;96970.41;5014643;28;20561;-76
2020/12/31 10:41:48;;;;;;;4.03;2.17;;;;;;;5.50;100.00;96965.28;5022132;28;20647;-78
2020/12/31 10:44:15;;;;;;;4.77;2.77;;;;;;;6.35;100.00;96963.84;5014695;28;20195;-74
2020/12/31 10:46:42;;;;;;;4.07;2.00;;;;;;;5.95;100.00;96962.06;5016156;28;20616;-77
2020/12/31 10:49:09;;;;;;;3.77;1.90;;;;;;;5.67;100.00;96968.41;5007173;28;20231;-76
2020/12/31 10:51:36;;;;;;;3.40;2.00;;;;;;;5.41;100.00;96962.97;5013015;28;20229;-77
2020/12/31 10:54:04;;;;;;;4.00;1.93;;;;;;;5.49;100.00;96960.19;5019175;28;20201;-76
2020/12/31 10:56:31;;;;;;;5.10;2.73;;;;;;;5.32;100.00;96969.41;5012596;28;20666;-76
2020/12/31 10:58:59;;;;;;;2.80;1.90;;;;;;;5.78;100.00;96957.28;5011090;28;20290;-76
2020/12/31 11:01:26;;;;;;;3.30;2.10;;;;;;;5.35;100.00;96938.13;5014634;28;20209;-75
2020/12/31 11:03:52;;;;;;;4.13;2.30;;;;;;;5.39;100.00;96941.19;5012376;28;20207;-76
2020/12/31 11:06:20;;;;;;;3.70;2.10;;;;;;;6.10;100.00;96938.09;5017975;28;20214;-76
2020/12/31 11:08:47;;;;;;;4.67;2.80;;;;;;;5.85;100.00;96937.78;5014727;28;20214;-78
2020/12/31 11:11:18;;;;;;;6.73;2.40;;;;;;;4.77;100.00;96927.94;5016442;28;20282;-78
2020/12/31 11:13:45;;;;;;;2.97;2.20;;;;;;;4.61;100.00;96928.22;5014976;28;20200;-78
2020/12/31 11:16:13;;;;;;;3.20;2.23;;;;;;;5.12;100.00;96923.53;5033976;23;20193;-75
2020/12/31 11:18:40;;;;;;;3.97;2.23;;;;;;;5.82;100.00;96919.66;5012566;28;20315;-74
2020/12/31 11:21:08;;;;;;;2.70;1.97;;;;;;;6.01;100.00;96916.28;5011126;28;20197;-74
2020/12/31 11:23:34;;;;;;;3.80;2.90;;;;;;;5.66;100.00;96914.69;5005706;28;20209;-74
2020/12/31 11:26:02;;;;;;;3.60;2.27;;;;;;;5.87;100.00;96906.66;5002266;28;20197;-75
2020/12/31 11:28:29;;;;;;;5.40;2.60;;;;;;;5.44;100.00;96909.69;5015286;28;20262;-74
2020/12/31 11:30:55;;;;;;;3.53;2.27;;;;;;;5.83;100.00;96908.06;5015814;28;20762;-75
2020/12/31 11:33:23;;;;;;;4.57;2.60;;;;;;;5.83;100.00;96908.06;5004610;28;20608;-74
2020/12/31 11:35:50;;;;;;;4.03;2.27;;;;;;;5.37;100.00;96903.53;5002909;28;20205;-74
2020/12/31 11:38:17;;;;;;;5.70;2.03;;;;;;;5.46;100.00;96897.06;4995406;28;20642;-73
2020/12/31 11:40:44;;;;;;;3.77;2.40;;;;;;;5.76;100.00;96895.78;5011773;28;20292;-74